Aérodrome :
LOGIN :

S'inscrire | Disclaimer

   EN    FR    IT 

 










Légende :    VFR   VFR Marginal   IFR   IFR Intensif   IFR Très Intensif
Visi : 
Plafond : 
>= 8 km
>= 3000ft
5 à 8 km
1000 à 3000 ft
1500m à 5 km
500 à 1000 ft
800 à 1500m
200 à 500 ft
< 800m
< 200 ft
Symboles :   Orages  Brouillard  Fortes neiges  Fortes précipitations  Vent > 20 kt
SIGMETs :   Divers  Orages  Givrage  Turbulence  Onde Orograph.  Cendres Volcan.






- Altitude de l'aérodrome : 782 ft
- Code IATA : BGY


LIME - Orio al Serio International - Bergamo

DERNIER METAR :
  • 201150Z 19005KT 160V230 CAVOK 12/M07 Q1024 NOSIG

METARs EXPIRÉS :
  • 201120Z 22006KT 190V250 CAVOK 12/M08 Q1025 NOSIG
  • 201050Z 19006KT 160V220 9999 FEW110 12/M07 Q1025 NOSIG
  • 201020Z 23004KT 200V290 9999 FEW110 12/M10 Q1025 NOSIG
  • 200950Z VRB02KT 9999 FEW110 11/M06 Q1025 NOSIG
  • 200920Z VRB01KT 9999 FEW110 10/M08 Q1025 NOSIG
  • 200850Z VRB02KT 9999 SCT110 09/M07 Q1025 NOSIG

TAF TAF LIME
Valide du 20 à 06h jusqu'au 21 à 06h UTC


200500Z 2006/2106 35008KT CAVOK



MET'MAP, la Météo Aéronautique d'un coup d'oeil ! - Copyright ORBIFLY Décembre 2007 - Disclaimer

ORBIFLY MET'MAP TEAM :

Programmation & Développement : Alexandra Zaïnal
Sur une idée originale de : Baudouin d'Aumeries
Assistance à la programmation : Marc-Olivier Méhu
Soutien technique & logistique : Manuel Goepfert

Contact : metmap@orbifly.com




SOURCES & CREDITS :

   NOAA